Time;durP1;ratioP1;P1;durP2;ratioP2;P2;SDS_P1;SDS_P2;PMS_P1;PMS_P2;Temp;Humidity;BMP_temperature;BMP_pressure;BME280_temperature;BME280_humidity;BME280_pressure;Samples;Min_cycle;Max_cycle;Signal;HPM_P1;HPM_P2
2021/04/01 00:00:47;;;;;;;6.43;5.50;;;;;;;11.69;64.56;98969.16;5030236;27;102761;-87
2021/04/01 00:03:15;;;;;;;6.07;4.43;;;;;;;11.77;63.78;98969.44;5048432;27;105395;-88
2021/04/01 00:05:42;;;;;;;6.73;4.67;;;;;;;11.88;63.05;98966.00;5047199;27;104811;-88
2021/04/01 00:08:10;;;;;;;5.47;4.50;;;;;;;11.90;62.55;98964.94;5050015;27;102604;-88
2021/04/01 00:10:39;;;;;;;5.73;4.80;;;;;;;11.94;62.55;98963.75;5049990;27;102573;-87
2021/04/01 00:13:08;;;;;;;6.67;4.20;;;;;;;11.72;64.11;98968.94;5043456;27;102986;-89
2021/04/01 00:15:37;;;;;;;6.70;4.77;;;;;;;11.68;63.62;98959.47;5037120;28;103957;-89
2021/04/01 00:18:04;;;;;;;4.43;4.03;;;;;;;11.78;63.28;98955.25;5041192;28;102505;-89
2021/04/01 00:20:31;;;;;;;9.27;4.60;;;;;;;11.83;63.18;98961.06;5040103;27;102786;-88
2021/04/01 00:22:59;;;;;;;4.77;4.33;;;;;;;11.89;62.33;98957.13;5054027;28;107294;-88
2021/04/01 00:25:26;;;;;;;5.00;3.70;;;;;;;11.87;62.73;98953.75;5073346;27;102698;-89
2021/04/01 00:27:53;;;;;;;7.50;4.20;;;;;;;11.83;62.71;98953.13;5054916;27;103106;-88
2021/04/01 00:30:22;;;;;;;6.90;4.87;;;;;;;11.61;63.69;98953.81;5053167;27;102873;-88
2021/04/01 00:32:49;;;;;;;7.33;4.60;;;;;;;11.44;64.02;98955.97;5053205;27;103759;-87
2021/04/01 00:35:16;;;;;;;6.63;4.10;;;;;;;11.46;63.93;98954.91;5035569;27;106175;-87
2021/04/01 00:37:44;;;;;;;5.80;4.50;;;;;;;11.47;64.39;98955.75;5032477;28;103071;-87
2021/04/01 00:40:12;;;;;;;7.17;4.23;;;;;;;11.41;64.20;98956.19;5069111;27;102715;-87
2021/04/01 00:42:39;;;;;;;4.90;3.77;;;;;;;11.51;63.11;98951.91;5060876;27;103118;-87
2021/04/01 00:45:09;;;;;;;3.67;3.10;;;;;;;11.55;62.98;98961.34;5051883;27;104897;-88
2021/04/01 00:47:38;;;;;;;4.87;3.43;;;;;;;11.41;63.95;98956.19;5052029;27;102580;-87
2021/04/01 00:50:08;;;;;;;5.37;4.00;;;;;;;11.31;64.75;98949.88;5033416;27;103272;-87
2021/04/01 00:52:36;;;;;;;7.83;4.90;;;;;;;11.27;64.70;98954.53;5050615;27;103855;-88
2021/04/01 00:55:03;;;;;;;7.57;5.20;;;;;;;11.16;65.25;98950.94;5049935;27;102839;-88
2021/04/01 00:57:31;;;;;;;8.23;5.03;;;;;;;11.17;65.02;98956.13;5051854;27;102519;-87
2021/04/01 00:59:59;;;;;;;5.93;5.00;;;;;;;10.99;66.60;98949.50;5051548;27;102956;-88
2021/04/01 01:02:26;;;;;;;4.50;4.10;;;;;;;10.96;66.50;98950.56;5046255;27;104325;-87
2021/04/01 01:04:54;;;;;;;6.07;4.63;;;;;;;10.92;66.34;98949.06;5051226;27;107923;-88
2021/04/01 01:07:21;;;;;;;5.73;5.03;;;;;;;10.72;66.89;98940.84;5052407;27;103221;-88
2021/04/01 01:09:48;;;;;;;5.40;4.47;;;;;;;10.64;67.67;98944.00;5052320;27;103333;-87
2021/04/01 01:12:15;;;;;;;4.67;4.20;;;;;;;10.80;66.32;98944.66;5049559;27;104636;-87
2021/04/01 01:14:42;;;;;;;6.07;4.73;;;;;;;10.92;65.44;98946.44;5051419;27;104426;-87
2021/04/01 01:17:09;;;;;;;7.80;5.10;;;;;;;10.80;66.85;98939.38;5051532;27;103045;-87
2021/04/01 01:19:38;;;;;;;6.13;4.67;;;;;;;10.92;65.39;98943.78;5051430;27;103183;-88
2021/04/01 01:22:07;;;;;;;4.43;3.63;;;;;;;10.94;65.27;98935.75;5050157;27;103728;-87
2021/04/01 01:24:36;;;;;;;6.20;4.37;;;;;;;10.97;65.22;98935.56;5051751;27;103125;-87
2021/04/01 01:27:05;;;;;;;6.33;5.33;;;;;;;10.83;66.27;98933.88;5049335;27;103120;-88
2021/04/01 01:29:33;;;;;;;4.90;4.37;;;;;;;10.66;66.77;98934.19;5051638;27;102673;-87
2021/04/01 01:32:00;;;;;;;7.13;5.47;;;;;;;10.68;67.01;98929.63;5050070;27;107013;-87
2021/04/01 01:34:27;;;;;;;8.27;4.63;;;;;;;10.63;67.12;98926.47;5049621;27;103855;-89
2021/04/01 01:36:55;;;;;;;5.77;4.77;;;;;;;10.62;67.08;98923.91;5052100;27;102582;-87
2021/04/01 01:39:22;;;;;;;8.63;6.23;;;;;;;10.20;70.06;98922.41;5049706;27;103010;-88
2021/04/01 01:41:49;;;;;;;6.77;5.40;;;;;;;10.03;70.63;98920.00;5061679;27;103440;-88
2021/04/01 01:44:17;;;;;;;7.30;5.50;;;;;;;10.21;69.48;98922.31;5050347;27;103738;-88
2021/04/01 01:46:44;;;;;;;10.50;6.17;;;;;;;9.96;70.91;98918.75;5032703;27;103103;-87
2021/04/01 01:49:11;;;;;;;7.57;6.23;;;;;;;9.63;72.46;98925.28;5051270;27;103011;-88
2021/04/01 01:51:38;;;;;;;10.20;6.57;;;;;;;9.59;72.28;98926.44;5030896;27;106333;-88
2021/04/01 01:54:05;;;;;;;12.23;6.73;;;;;;;9.76;71.56;98917.41;5050638;27;103601;-88
2021/04/01 01:56:34;;;;;;;6.77;5.70;;;;;;;9.88;70.81;98917.44;5045562;27;103233;-88
2021/04/01 01:59:02;;;;;;;5.07;4.50;;;;;;;10.15;69.16;98908.69;5029036;28;102977;-89
2021/04/01 02:01:29;;;;;;;7.67;4.97;;;;;;;10.31;68.42;98909.31;5033876;27;106022;-88
2021/04/01 02:04:02;;;;;;;5.07;4.20;;;;;;;10.38;68.36;98902.69;5049393;27;104249;-88
2021/04/01 02:06:30;;;;;;;6.73;5.27;;;;;;;10.41;68.31;98898.03;5049163;27;103117;-87
2021/04/01 02:08:57;;;;;;;5.83;5.23;;;;;;;10.41;68.13;98899.84;5030271;28;103172;-88
2021/04/01 02:11:25;;;;;;;8.47;6.37;;;;;;;10.25;68.94;98899.16;5029462;28;105839;-88
2021/04/01 02:13:53;;;;;;;10.30;6.10;;;;;;;10.29;68.74;98893.59;5028942;28;105116;-88
2021/04/01 02:16:22;;;;;;;7.30;5.00;;;;;;;10.36;68.10;98896.66;5036305;27;103756;-88
2021/04/01 02:18:50;;;;;;;10.97;6.10;;;;;;;10.39;68.40;98889.38;5046733;27;103534;-89
2021/04/01 02:21:18;;;;;;;8.47;6.10;;;;;;;10.19;69.57;98894.34;5050031;27;104146;-87
2021/04/01 02:23:46;;;;;;;8.33;6.37;;;;;;;10.13;68.94;98894.75;5048906;27;106515;-88
2021/04/01 02:26:13;;;;;;;6.60;5.77;;;;;;;10.28;68.62;98893.69;5024280;27;103249;-88
2021/04/01 02:28:40;;;;;;;5.37;4.50;;;;;;;10.48;67.27;98895.81;5045942;27;102829;-88
2021/04/01 02:31:09;;;;;;;4.73;4.07;;;;;;;10.53;66.92;98892.84;5029541;28;102759;-88
2021/04/01 02:33:39;;;;;;;6.33;5.43;;;;;;;10.48;67.72;98890.53;5034098;27;103318;-88
2021/04/01 02:36:07;;;;;;;7.37;5.03;;;;;;;10.41;68.32;98895.38;5043113;27;102719;-88
2021/04/01 02:38:34;;;;;;;7.27;4.50;;;;;;;10.32;68.60;98888.09;5048626;27;103168;-88
2021/04/01 02:41:02;;;;;;;5.40;4.30;;;;;;;10.42;67.35;98890.94;5047631;27;103826;-88
2021/04/01 02:43:32;;;;;;;8.90;6.00;;;;;;;10.43;67.85;98887.38;5048892;27;103378;-88
2021/04/01 02:46:00;;;;;;;6.30;5.10;;;;;;;10.51;67.53;98890.31;5049408;27;102650;-88
2021/04/01 02:48:27;;;;;;;9.17;6.17;;;;;;;10.43;67.73;98882.09;5043905;27;102912;-88
2021/04/01 02:50:56;;;;;;;7.40;5.37;;;;;;;10.49;67.41;98886.94;5062085;27;104092;-89
2021/04/01 02:53:23;;;;;;;5.70;4.50;;;;;;;10.53;67.35;98893.69;5029268;28;107150;-88
2021/04/01 02:55:54;;;;;;;8.00;5.17;;;;;;;10.55;67.02;98875.97;5037054;27;103155;-88
2021/04/01 02:58:21;;;;;;;5.77;4.70;;;;;;;10.56;66.85;98882.91;5050964;27;103308;-88
2021/04/01 03:00:51;;;;;;;7.57;5.37;;;;;;;10.60;66.82;98883.56;5031947;27;103324;-88
2021/04/01 03:03:20;;;;;;;9.33;5.80;;;;;;;10.66;66.60;98875.22;5029244;28;103785;-87
2021/04/01 03:05:48;;;;;;;5.87;4.80;;;;;;;10.68;66.86;98882.06;5027629;27;102617;-88
2021/04/01 03:08:16;;;;;;;5.73;4.50;;;;;;;10.63;67.14;98884.19;5048969;27;102753;-86
2021/04/01 03:10:43;;;;;;;6.13;4.70;;;;;;;10.70;66.92;98871.38;5049231;27;105273;-88
2021/04/01 03:13:11;;;;;;;6.03;4.10;;;;;;;10.64;67.27;98880.59;5049661;27;103379;-88
2021/04/01 03:15:48;;;;;;;7.13;4.97;;;;;;;10.64;67.09;98880.59;5048724;27;103151;-88
2021/04/01 03:18:15;;;;;;;10.80;6.70;;;;;;;10.40;67.91;98877.00;5061611;27;104605;-87
2021/04/01 03:20:42;;;;;;;9.93;6.30;;;;;;;10.39;68.02;98877.94;5028069;28;108042;-88
2021/04/01 03:23:10;;;;;;;10.00;5.83;;;;;;;10.44;67.55;98889.06;5027607;28;103184;-88
2021/04/01 03:25:38;;;;;;;11.90;6.10;;;;;;;10.37;68.36;98885.13;5033702;27;103049;-88
2021/04/01 03:28:05;;;;;;;5.83;4.60;;;;;;;10.32;68.69;98887.25;5046571;27;103095;-87
2021/04/01 03:30:32;;;;;;;8.27;6.10;;;;;;;10.31;68.36;98878.47;5048920;27;106873;-86
2021/04/01 03:32:59;;;;;;;10.77;6.20;;;;;;;10.23;69.29;98882.59;5048469;27;103656;-88
2021/04/01 03:35:26;;;;;;;5.87;4.80;;;;;;;10.31;68.78;98882.91;5046599;27;103086;-88
2021/04/01 03:37:56;;;;;;;8.30;5.70;;;;;;;10.23;69.10;98879.97;5030078;27;102850;-87
2021/04/01 03:40:24;;;;;;;9.30;5.73;;;;;;;10.23;68.97;98880.81;5049225;27;104800;-87
2021/04/01 03:42:52;;;;;;;9.77;6.23;;;;;;;10.11;69.61;98886.03;5055979;27;103749;-87
2021/04/01 03:45:20;;;;;;;7.10;5.40;;;;;;;10.16;69.14;98884.78;5046678;27;103192;-88
2021/04/01 03:47:52;;;;;;;4.93;4.40;;;;;;;10.31;68.05;98893.47;5047522;27;102741;-87
2021/04/01 03:50:20;;;;;;;5.77;4.33;;;;;;;10.34;68.42;98888.00;5048157;27;103196;-87
2021/04/01 03:52:47;;;;;;;5.43;3.67;;;;;;;10.37;68.15;98885.13;5048002;27;104000;-88
2021/04/01 03:55:33;;;;;;;10.37;5.00;;;;;;;10.40;67.74;98885.78;5046831;27;102875;-87
2021/04/01 03:58:06;;;;;;;8.37;5.07;;;;;;;10.35;68.61;98890.53;5028898;27;102971;-83
2021/04/01 04:00:35;;;;;;;7.87;4.37;;;;;;;10.27;68.61;98892.00;5046885;27;103396;-83
2021/04/01 04:03:10;;;;;;;7.13;4.60;;;;;;;10.23;68.82;98885.22;5043673;27;104835;-86
2021/04/01 04:05:47;;;;;;;7.33;4.33;;;;;;;10.18;68.56;98895.28;5051628;27;103026;-84
2021/04/01 04:11:05;;;;;;;6.10;4.40;;;;;;;10.24;68.72;98900.16;5032931;27;104151;-81
2021/04/01 04:13:35;;;;;;;6.73;4.10;;;;;;;10.24;68.45;98898.34;5028008;28;104048;-78
2021/04/01 04:16:02;;;;;;;8.43;4.70;;;;;;;10.24;68.54;98885.16;5040123;27;102948;-82
2021/04/01 04:18:29;;;;;;;5.87;3.97;;;;;;;10.33;67.91;98891.59;5046054;27;103104;-82
2021/04/01 04:20:56;;;;;;;5.67;4.37;;;;;;;10.34;67.85;98890.63;5052368;27;105071;-81
2021/04/01 04:23:24;;;;;;;8.53;4.57;;;;;;;10.31;68.08;98898.75;5052151;27;110466;-77
2021/04/01 04:25:53;;;;;;;7.13;4.43;;;;;;;10.19;68.94;98892.50;5047707;27;102582;-78
2021/04/01 04:28:31;;;;;;;9.13;5.20;;;;;;;9.97;69.81;98894.03;5055193;27;102726;-80
2021/04/01 04:31:00;;;;;;;8.20;5.27;;;;;;;10.05;69.31;98897.84;5035661;28;102975;-77
2021/04/01 04:33:27;;;;;;;7.83;4.77;;;;;;;10.00;69.50;98893.81;5032404;27;104008;-86
2021/04/01 04:35:55;;;;;;;6.47;4.80;;;;;;;10.09;68.50;98895.84;5046656;27;103548;-79
2021/04/01 04:38:23;;;;;;;5.13;3.93;;;;;;;10.08;68.71;98892.34;5052717;27;102535;-77
2021/04/01 04:40:54;;;;;;;7.93;4.63;;;;;;;10.02;69.54;98905.13;5042609;27;105043;-80
2021/04/01 04:43:21;;;;;;;8.37;5.53;;;;;;;9.82;70.28;98912.56;5043017;27;104750;-78
2021/04/01 04:45:49;;;;;;;8.73;5.07;;;;;;;9.55;71.99;98903.81;5034505;27;103082;-77
2021/04/01 04:48:17;;;;;;;6.13;4.63;;;;;;;9.80;69.91;98908.34;5047414;27;103028;-77
2021/04/01 04:50:45;;;;;;;8.23;4.30;;;;;;;9.91;69.53;98917.25;5047038;27;103795;-78
2021/04/01 04:53:14;;;;;;;6.43;5.00;;;;;;;9.96;69.62;98913.47;5046678;27;104554;-78
2021/04/01 04:55:45;;;;;;;7.70;6.17;;;;;;;9.19;73.17;98900.91;5046741;27;103064;-77
2021/04/01 04:58:17;;;;;;;11.97;6.03;;;;;;;9.20;73.11;98907.88;5031519;27;102726;-77
2021/04/01 05:01:03;;;;;;;8.90;5.50;;;;;;;9.25;73.42;98911.06;5038363;27;104507;-79
2021/04/01 05:06:33;;;;;;;8.13;5.70;;;;;;;9.15;73.96;98909.97;5055992;27;102617;-82
2021/04/01 05:09:00;;;;;;;7.37;5.50;;;;;;;9.24;73.90;98914.63;5054195;27;103093;-82
2021/04/01 05:11:27;;;;;;;8.70;5.63;;;;;;;9.18;74.12;98920.28;5062530;27;103282;-86
2021/04/01 05:13:54;;;;;;;9.10;6.57;;;;;;;9.22;74.26;98921.81;5059387;27;104968;-79
2021/04/01 05:16:21;;;;;;;8.80;6.27;;;;;;;9.13;74.25;98925.88;5048794;27;103032;-81
2021/04/01 05:18:49;;;;;;;8.50;6.13;;;;;;;9.00;74.92;98934.63;5040142;27;103935;-79
2021/04/01 05:21:18;;;;;;;11.60;6.43;;;;;;;9.23;73.93;98923.50;5044595;27;111534;-82
2021/04/01 05:23:47;;;;;;;11.17;6.93;;;;;;;9.38;73.42;98927.78;5040421;27;104185;-79
2021/04/01 05:29:13;;;;;;;6.87;4.27;;;;;;;9.71;71.90;98928.25;4987744;28;103392;-80
2021/04/01 05:31:40;;;;;;;5.33;4.10;;;;;;;9.83;71.11;98930.09;5035898;27;103324;-79
2021/04/01 05:34:09;;;;;;;8.90;4.73;;;;;;;9.94;71.04;98933.84;5046801;27;104305;-80
2021/04/01 05:36:39;;;;;;;8.27;5.67;;;;;;;10.00;70.29;98933.41;5051124;27;103119;-79
2021/04/01 05:39:10;;;;;;;7.33;5.50;;;;;;;10.05;70.32;98931.34;5050373;27;103291;-80
2021/04/01 05:41:39;;;;;;;9.00;6.80;;;;;;;9.95;71.29;98936.38;5054044;27;104234;-79
2021/04/01 05:44:15;;;;;;;7.33;6.23;;;;;;;9.99;71.34;98940.50;5049086;27;104295;-77
2021/04/01 05:46:47;;;;;;;10.43;6.67;;;;;;;10.02;71.46;98939.47;5045590;27;103101;-79
2021/04/01 05:49:34;;;;;;;11.47;6.43;;;;;;;10.09;70.68;98940.72;5030880;28;102792;-80
2021/04/01 05:58:26;;;;;;;5.20;3.93;;;;;;;10.69;69.22;98941.06;5048852;27;103230;-80
2021/04/01 06:01:11;;;;;;;21.07;12.70;;;;;;;10.62;70.48;98937.97;5048709;27;102662;-79
2021/04/01 06:03:54;;;;;;;12.07;8.37;;;;;;;10.73;69.55;98940.72;5049831;27;104218;-79
2021/04/01 06:06:29;;;;;;;11.57;8.23;;;;;;;10.99;68.63;98945.06;5050130;27;104284;-79
2021/04/01 06:09:00;;;;;;;11.83;7.73;;;;;;;11.17;68.59;98942.06;5050682;27;102583;-79
2021/04/01 06:11:27;;;;;;;12.80;7.53;;;;;;;11.35;67.76;98941.59;5049339;27;102865;-80
2021/04/01 06:14:10;;;;;;;10.07;6.53;;;;;;;11.43;66.76;98943.69;5049060;27;103648;-79
2021/04/01 06:16:39;;;;;;;10.10;5.90;;;;;;;11.61;67.17;98937.94;5048310;27;106888;-81
2021/04/01 06:19:16;;;;;;;10.90;6.47;;;;;;;11.60;67.06;98935.38;5064796;27;103016;-79
2021/04/01 06:21:46;;;;;;;9.50;5.90;;;;;;;11.69;66.98;98940.03;5046243;27;102768;-79
2021/04/01 06:24:23;;;;;;;9.30;5.77;;;;;;;11.66;67.22;98934.94;5049107;27;103910;-79
2021/04/01 06:26:55;;;;;;;7.43;5.43;;;;;;;11.69;66.92;98937.41;5046502;27;104289;-79
2021/04/01 06:29:27;;;;;;;9.97;7.63;;;;;;;11.88;66.54;98934.22;5029372;27;102988;-79
2021/04/01 06:31:56;;;;;;;11.73;6.87;;;;;;;11.87;66.83;98932.56;5033486;27;102964;-79
2021/04/01 06:34:39;;;;;;;12.37;6.47;;;;;;;11.87;66.69;98933.41;5048193;27;105819;-79
2021/04/01 06:37:28;;;;;;;11.93;6.30;;;;;;;11.99;65.77;98934.28;5044758;27;103564;-79
2021/04/01 06:39:59;;;;;;;10.30;5.77;;;;;;;12.01;65.97;98930.56;5029518;28;103007;-79
2021/04/01 06:42:33;;;;;;;7.70;5.60;;;;;;;11.98;65.59;98936.13;5053675;27;103058;-79
2021/04/01 06:45:04;;;;;;;12.40;6.43;;;;;;;12.01;65.95;98930.56;5051409;27;105893;-80
2021/04/01 06:47:34;;;;;;;10.10;6.37;;;;;;;12.02;65.36;98937.56;5049100;27;104315;-79
2021/04/01 06:50:07;;;;;;;11.00;6.40;;;;;;;12.01;65.31;98933.22;5049088;27;103192;-80
2021/04/01 06:52:42;;;;;;;10.33;6.60;;;;;;;11.98;65.25;98936.13;5031290;27;102900;-83
2021/04/01 06:55:34;;;;;;;12.17;5.80;;;;;;;12.06;65.15;98927.59;5033245;27;103949;-79
2021/04/01 06:58:13;;;;;;;8.60;6.60;;;;;;;12.21;64.58;98926.41;5048701;27;104284;-79
2021/04/01 07:01:04;;;;;;;6.70;5.47;;;;;;;12.39;64.20;98925.03;5046097;27;103204;-80
2021/04/01 07:03:41;;;;;;;12.37;6.20;;;;;;;12.38;64.28;98927.81;5048407;27;103086;-80
2021/04/01 07:06:13;;;;;;;15.07;6.73;;;;;;;12.56;64.11;98927.25;5048859;27;105205;-80
2021/04/01 07:08:45;;;;;;;9.57;6.87;;;;;;;12.57;64.02;98922.81;5047402;27;103703;-79
2021/04/01 07:11:24;;;;;;;12.77;6.90;;;;;;;12.89;63.26;98923.78;5029520;27;103109;-79
2021/04/01 07:13:55;;;;;;;9.07;5.60;;;;;;;13.10;62.77;98916.84;5028900;28;102768;-79
2021/04/01 07:16:31;;;;;;;9.27;6.60;;;;;;;13.22;61.90;98910.53;5027349;28;103831;-80
2021/04/01 07:44:52;;;;;;;10.30;6.30;;;;;;;16.29;53.95;98922.09;5047670;27;102606;-77
2021/04/01 07:47:21;;;;;;;11.77;6.60;;;;;;;16.12;54.49;98926.31;5044648;27;102671;-80
2021/04/01 07:49:51;;;;;;;7.73;6.50;;;;;;;16.23;54.15;98918.16;5046965;27;104470;-77
2021/04/01 07:52:20;;;;;;;12.03;6.30;;;;;;;16.47;54.03;98915.94;5038036;27;103891;-84
2021/04/01 08:00:30;;;;;;;12.10;6.70;;;;;;;16.97;52.49;98911.19;5054617;27;105117;-84
2021/04/01 08:03:05;;;;;;;13.67;7.23;;;;;;;17.20;52.64;98914.34;5049230;27;110977;-82
2021/04/01 08:05:35;;;;;;;13.63;7.70;;;;;;;17.68;51.00;98904.28;5047173;27;104896;-84
2021/04/01 08:08:05;;;;;;;17.00;7.00;;;;;;;17.59;50.72;98909.66;5045450;27;103074;-80
2021/04/01 08:10:38;;;;;;;13.20;6.67;;;;;;;17.09;51.31;98904.69;5051080;27;103600;-85
2021/04/01 08:13:10;;;;;;;10.67;6.83;;;;;;;18.09;50.30;98907.34;5053290;27;103886;-82
2021/04/01 08:15:41;;;;;;;10.40;6.27;;;;;;;18.37;49.27;98907.09;5046674;27;103082;-86
2021/04/01 08:18:21;;;;;;;11.93;6.87;;;;;;;18.70;48.52;98902.84;5048183;27;103158;-80
2021/04/01 08:20:54;;;;;;;13.63;6.97;;;;;;;18.80;48.06;98908.97;5046637;27;104456;-82
2021/04/01 08:23:44;;;;;;;11.63;6.97;;;;;;;19.09;47.83;98901.41;5036830;27;103715;-81
2021/04/01 08:26:44;;;;;;;12.05;5.90;;;;;;;19.36;47.10;98896.84;5043045;27;102903;-78
2021/04/01 08:33:01;;;;;;;14.52;7.10;;;;;;;19.94;45.74;98903.09;5054665;27;104366;-80
2021/04/01 08:35:56;;;;;;;12.90;6.65;;;;;;;21.24;44.94;98904.72;5053221;27;102963;-77
2021/04/01 08:38:45;;;;;;;9.52;6.05;;;;;;;21.57;42.72;98912.63;5051107;27;102650;-80
2021/04/01 08:42:09;;;;;;;14.35;6.07;;;;;;;20.68;44.46;98894.94;5039107;27;102946;-79
2021/04/01 08:45:30;;;;;;;7.20;5.57;;;;;;;21.17;43.42;98900.19;5031330;27;106937;-80
2021/04/01 08:48:24;;;;;;;8.68;6.05;;;;;;;21.54;44.20;98897.69;5050904;27;103703;-84
2021/04/01 08:51:04;;;;;;;12.15;6.13;;;;;;;22.27;43.09;98895.44;5050535;27;103008;-84
2021/04/01 08:53:57;;;;;;;10.80;6.57;;;;;;;22.28;42.91;98902.50;5051767;27;102913;-82
2021/04/01 08:56:34;;;;;;;10.52;6.28;;;;;;;21.90;41.11;98903.41;5046070;27;103402;-83
2021/04/01 08:59:11;;;;;;;12.85;6.43;;;;;;;21.06;42.84;98898.69;5049635;27;103331;-83
2021/04/01 09:01:42;;;;;;;9.30;4.82;;;;;;;22.32;41.47;98886.81;5050937;27;102973;-82
2021/04/01 09:04:10;;;;;;;7.90;4.97;;;;;;;22.90;41.06;98888.84;5051202;27;103479;-83
2021/04/01 09:06:41;;;;;;;10.80;6.05;;;;;;;21.86;41.73;98885.94;5057149;27;105385;-82
2021/04/01 09:09:12;;;;;;;14.00;7.03;;;;;;;21.13;42.19;98893.50;5043019;27;104147;-82
2021/04/01 09:11:46;;;;;;;10.50;5.43;;;;;;;21.56;42.92;98890.28;5051626;27;103333;-82
2021/04/01 09:14:24;;;;;;;11.02;6.47;;;;;;;20.63;43.75;98891.06;5042151;27;103181;-81
2021/04/01 09:17:06;;;;;;;12.25;6.25;;;;;;;21.38;42.72;98885.19;5043692;27;104325;-83
2021/04/01 09:19:34;;;;;;;11.50;5.80;;;;;;;21.50;42.83;98879.44;5050533;27;110083;-75
2021/04/01 09:22:01;;;;;;;10.68;5.45;;;;;;;21.55;44.25;98887.78;5048203;27;103073;-81
2021/04/01 09:24:33;;;;;;;8.55;5.57;;;;;;;21.19;44.37;98882.06;5050197;27;102806;-79
2021/04/01 09:27:01;;;;;;;47.22;9.05;;;;;;;21.69;43.93;98878.97;5045923;27;104957;-79
2021/04/01 09:29:38;;;;;;;13.63;5.70;;;;;;;22.17;43.15;98881.38;5049795;27;104345;-79
2021/04/01 09:32:08;;;;;;;36.20;6.55;;;;;;;22.32;43.06;98881.41;5048195;27;103114;-79
2021/04/01 09:34:37;;;;;;;7.68;4.18;;;;;;;21.47;42.80;98883.31;5045591;27;103381;-79
2021/04/01 09:37:11;;;;;;;7.05;3.97;;;;;;;21.40;42.16;98879.63;5049845;27;103847;-77
2021/04/01 09:39:38;;;;;;;11.63;3.35;;;;;;;22.82;40.81;98878.97;5040587;27;106537;-76
2021/04/01 09:42:14;;;;;;;6.20;3.60;;;;;;;22.22;40.63;98878.16;5048946;27;103078;-79
2021/04/01 09:44:53;;;;;;;10.90;3.70;;;;;;;22.24;40.05;98871.56;5042606;27;104039;-78
2021/04/01 09:47:27;;;;;;;4.93;3.50;;;;;;;23.00;39.12;98870.53;5047012;27;104578;-77
2021/04/01 09:50:02;;;;;;;4.47;3.08;;;;;;;23.23;38.78;98863.19;5045186;27;103665;-77
2021/04/01 09:52:30;;;;;;;8.35;4.20;;;;;;;23.15;39.15;98863.28;5046669;27;103098;-77
2021/04/01 09:54:59;;;;;;;6.85;3.17;;;;;;;23.78;38.60;98864.50;5040901;27;102940;-77
2021/04/01 09:57:40;;;;;;;8.30;3.88;;;;;;;23.33;38.58;98861.03;5044981;27;103388;-77
2021/04/01 10:00:18;;;;;;;7.25;3.30;;;;;;;24.18;38.42;98862.06;5048940;27;108673;-77
2021/04/01 10:03:01;;;;;;;8.00;3.30;;;;;;;24.14;38.81;98854.56;5042126;27;103081;-78
2021/04/01 10:05:33;;;;;;;6.43;3.35;;;;;;;24.36;37.43;98853.53;5047909;27;103285;-77
2021/04/01 10:08:02;;;;;;;5.95;3.42;;;;;;;23.31;37.80;98857.69;5046455;27;103850;-78
2021/04/01 10:10:36;;;;;;;6.30;3.67;;;;;;;24.30;37.27;98842.66;5022146;27;103314;-77
2021/04/01 10:13:15;;;;;;;6.90;3.25;;;;;;;24.88;36.78;98831.47;5045196;27;103216;-78
2021/04/01 10:15:43;;;;;;;9.93;3.88;;;;;;;23.98;38.31;98831.31;5044624;27;104388;-78
2021/04/01 10:18:18;;;;;;;7.22;3.58;;;;;;;23.28;38.98;98823.03;5041743;27;106271;-77
2021/04/01 10:20:57;;;;;;;8.50;4.13;;;;;;;24.18;36.71;98826.13;5047702;27;103698;-80
2021/04/01 10:23:24;;;;;;;9.73;3.80;;;;;;;24.23;38.30;98821.81;5044552;27;103124;-77
2021/04/01 10:25:59;;;;;;;5.05;3.40;;;;;;;24.26;37.12;98815.19;5044584;27;102808;-78
2021/04/01 10:28:34;;;;;;;9.63;3.63;;;;;;;24.09;38.21;98820.03;5046130;27;104391;-78
2021/04/01 10:31:11;;;;;;;7.32;2.97;;;;;;;24.96;36.13;98814.25;5037414;27;103739;-78
2021/04/01 10:33:52;;;;;;;5.95;3.05;;;;;;;25.06;35.98;98812.06;5043206;27;103244;-80
2021/04/01 10:36:27;;;;;;;14.88;3.20;;;;;;;25.55;35.77;98801.03;5021508;27;103111;-79
2021/04/01 10:39:01;;;;;;;7.00;3.10;;;;;;;24.69;36.34;98797.03;5068072;27;104931;-79
2021/04/01 10:41:30;;;;;;;5.72;2.55;;;;;;;25.30;35.65;98798.00;5046082;27;103766;-81
2021/04/01 10:44:00;;;;;;;10.07;2.90;;;;;;;25.15;36.82;98794.63;5043715;27;103143;-78
2021/04/01 10:46:29;;;;;;;5.18;2.83;;;;;;;25.45;36.35;98793.28;5044778;27;103283;-77
2021/04/01 10:49:01;;;;;;;3.28;2.30;;;;;;;25.18;36.57;98794.25;5044809;27;111881;-78
2021/04/01 10:51:29;;;;;;;4.57;2.40;;;;;;;25.26;35.95;98785.94;5043689;27;104146;-78
2021/04/01 10:54:16;;;;;;;6.18;2.83;;;;;;;25.40;35.75;98793.06;5036697;27;103684;-77
2021/04/01 10:56:48;;;;;;;8.98;2.83;;;;;;;24.68;36.15;98777.28;5046522;27;103334;-81
2021/04/01 10:59:15;;;;;;;5.72;2.75;;;;;;;24.82;36.55;98778.22;5045872;27;104428;-81
2021/04/01 11:01:44;;;;;;;6.38;3.10;;;;;;;25.11;36.35;98774.44;5045402;27;103726;-81
2021/04/01 11:04:15;;;;;;;3.58;2.90;;;;;;;24.37;36.77;98774.16;5045729;27;102905;-78
2021/04/01 11:06:46;;;;;;;3.53;2.97;;;;;;;24.28;37.67;98772.66;5040658;27;103416;-77
2021/04/01 11:09:14;;;;;;;4.32;2.45;;;;;;;24.55;37.51;98761.03;5041490;27;103608;-79
2021/04/01 11:12:00;;;;;;;4.72;2.67;;;;;;;24.72;36.97;98756.97;5045420;27;103641;-78
2021/04/01 11:14:30;;;;;;;6.80;2.75;;;;;;;24.62;36.96;98755.63;5027860;27;103272;-76
2021/04/01 11:16:59;;;;;;;6.88;2.90;;;;;;;24.73;37.17;98755.91;5040522;27;103057;-77
2021/04/01 11:19:33;;;;;;;4.88;2.80;;;;;;;24.69;37.09;98749.25;5042831;27;104021;-79
2021/04/01 11:22:03;;;;;;;5.95;2.45;;;;;;;25.54;36.05;98751.53;5032894;27;108961;-80
2021/04/01 11:24:31;;;;;;;4.20;2.45;;;;;;;25.87;35.96;98746.19;5045189;27;103332;-78
2021/04/01 11:27:06;;;;;;;7.63;3.40;;;;;;;25.60;35.83;98748.00;5049134;27;103549;-82
2021/04/01 11:29:33;;;;;;;5.65;2.50;;;;;;;24.60;36.38;98741.50;5046150;27;105135;-77
2021/04/01 11:32:15;;;;;;;3.83;2.78;;;;;;;25.31;36.20;98737.50;5059740;27;103834;-86
2021/04/01 11:34:47;;;;;;;6.32;2.78;;;;;;;25.84;35.48;98735.75;5043015;27;102956;-78
2021/04/01 11:37:20;;;;;;;5.05;2.70;;;;;;;25.48;35.81;98738.00;5047710;27;103424;-77
2021/04/01 11:39:48;;;;;;;5.45;2.42;;;;;;;25.63;35.71;98734.06;5042084;27;104127;-76
2021/04/01 11:42:17;;;;;;;8.90;3.45;;;;;;;25.37;35.23;98736.69;5045654;27;103746;-75
2021/04/01 11:44:46;;;;;;;4.15;2.90;;;;;;;26.16;34.75;98731.44;5057716;27;102649;-84
2021/04/01 11:47:15;;;;;;;7.53;3.10;;;;;;;25.23;34.82;98738.53;5046779;27;103194;-76
2021/04/01 11:49:44;;;;;;;7.68;3.08;;;;;;;25.38;35.95;98725.66;5038034;27;105127;-75
2021/04/01 11:52:12;;;;;;;3.92;2.88;;;;;;;25.68;35.99;98719.94;5041225;27;103643;-78
2021/04/01 11:54:39;;;;;;;3.75;2.60;;;;;;;25.23;35.91;98721.47;5043813;27;103052;-78
2021/04/01 11:57:21;;;;;;;4.55;2.92;;;;;;;25.97;35.32;98714.09;5041787;27;104530;-79
2021/04/01 11:59:55;;;;;;;4.15;3.00;;;;;;;26.32;34.60;98712.03;5039472;27;103936;-78
2021/04/01 12:02:25;;;;;;;5.13;2.65;;;;;;;26.16;34.95;98712.47;5040985;27;104260;-77
2021/04/01 12:04:56;;;;;;;4.47;2.53;;;;;;;26.32;34.23;98714.75;5044055;27;103071;-77
2021/04/01 12:07:24;;;;;;;6.55;2.45;;;;;;;25.64;35.33;98719.50;5045521;27;103028;-77
2021/04/01 12:09:52;;;;;;;5.18;2.95;;;;;;;26.46;34.67;98706.41;5038678;27;103788;-77
2021/04/01 12:12:33;;;;;;;10.07;2.83;;;;;;;25.22;34.33;98715.22;5043651;27;104371;-77
2021/04/01 12:15:01;;;;;;;7.30;2.90;;;;;;;25.07;35.09;98716.41;5043680;27;103188;-77
2021/04/01 12:17:33;;;;;;;5.43;2.30;;;;;;;25.23;34.81;98702.53;5042246;27;103177;-77
2021/04/01 12:20:03;;;;;;;5.03;2.35;;;;;;;25.85;34.26;98703.06;5043974;27;103373;-77
2021/04/01 12:22:37;;;;;;;5.63;2.38;;;;;;;26.02;34.87;98697.25;5045062;27;104433;-76
2021/04/01 12:25:08;;;;;;;5.03;2.50;;;;;;;25.39;35.25;98699.47;5044735;27;103687;-77
2021/04/01 12:27:36;;;;;;;7.35;2.60;;;;;;;25.92;34.67;98686.84;5044267;27;103143;-77
2021/04/01 12:30:06;;;;;;;5.93;2.70;;;;;;;25.53;34.56;98684.94;5037971;27;106017;-77
2021/04/01 12:32:35;;;;;;;6.28;2.80;;;;;;;26.00;33.86;98680.38;5036854;27;109958;-77
2021/04/01 12:35:10;;;;;;;3.65;2.20;;;;;;;25.42;34.46;98693.63;5043406;27;103231;-76